createdAt,value
2022-08-17T00:00:44.029Z,99308.78
2022-08-17T00:05:52.823Z,99300.19
2022-08-17T00:10:55.655Z,99296.56
2022-08-17T00:16:02.886Z,99300.06
2022-08-17T00:21:10.603Z,99297.09
2022-08-17T00:26:13.091Z,99295.06
2022-08-17T00:31:16.169Z,99305.28
2022-08-17T00:36:18.926Z,99297.00
2022-08-17T00:41:24.225Z,99299.06
2022-08-17T00:46:31.253Z,99286.19
2022-08-17T00:51:44.286Z,99295.75
2022-08-17T00:56:54.005Z,99288.47
2022-08-17T01:01:55.765Z,99297.41
2022-08-17T01:07:00.739Z,99289.38
2022-08-17T01:12:03.196Z,99285.38
2022-08-17T01:17:05.894Z,99279.31
2022-08-17T01:22:14.483Z,99285.09
2022-08-17T01:27:18.502Z,99282.47
2022-08-17T01:32:22.292Z,99285.59
2022-08-17T01:37:34.525Z,99285.75
2022-08-17T01:42:56.854Z,99300.91
2022-08-17T01:47:58.726Z,99302.47
2022-08-17T01:53:05.293Z,99299.97
2022-08-17T01:58:09.865Z,99303.88
2022-08-17T02:03:12.924Z,99306.47
2022-08-17T02:08:20.377Z,99299.69
2022-08-17T02:13:22.666Z,99290.97
2022-08-17T02:18:25.811Z,99299.19
2022-08-17T02:23:30.465Z,99292.44
2022-08-17T02:28:32.191Z,99299.06
2022-08-17T02:33:43.012Z,99298.56
2022-08-17T02:38:45.331Z,99294.28
2022-08-17T02:43:47.072Z,99294.09
2022-08-17T02:48:48.901Z,99299.03
2022-08-17T02:53:50.911Z,99295.97
2022-08-17T02:58:52.584Z,99292.03
2022-08-17T03:03:54.284Z,99296.25
2022-08-17T03:08:55.941Z,99276.41
2022-08-17T03:13:58.593Z,99284.31
2022-08-17T03:19:00.277Z,99288.34
2022-08-17T03:24:02.340Z,99288.63
2022-08-17T03:29:10.572Z,99295.06
2022-08-17T03:34:12.941Z,99306.03
2022-08-17T03:39:14.629Z,99314.34
2022-08-17T03:44:16.311Z,99304.22
2022-08-17T03:49:36.869Z,99291.75
2022-08-17T03:54:57.403Z,99297.78
2022-08-17T03:59:59.862Z,99307.84
2022-08-17T04:05:01.877Z,99309.88
2022-08-17T04:10:04.298Z,99309.50
2022-08-17T04:15:06.814Z,99303.25
2022-08-17T04:20:09.093Z,99298.13
2022-08-17T04:25:18.439Z,99302.56
2022-08-17T04:30:20.308Z,99296.66
2022-08-17T04:35:26.234Z,99301.88
2022-08-17T04:40:46.873Z,99300.38
2022-08-17T04:45:56.296Z,99292.38
2022-08-17T04:50:59.221Z,99307.19
2022-08-17T04:56:01.018Z,99306.03
2022-08-17T05:01:03.266Z,99308.50
2022-08-17T05:06:05.464Z,99314.78
2022-08-17T05:11:08.330Z,99324.88
2022-08-17T05:16:10.212Z,99324.38
2022-08-17T05:21:12.462Z,99319.25
2022-08-17T05:26:19.844Z,99315.72
2022-08-17T05:31:29.523Z,99324.59
2022-08-17T05:36:38.116Z,99326.13
2022-08-17T05:41:48.027Z,99316.34
2022-08-17T05:46:52.131Z,99306.41
2022-08-17T05:52:06.017Z,99293.06
2022-08-17T05:57:31.626Z,99297.34
2022-08-17T06:02:50.880Z,99289.41
2022-08-17T06:08:14.316Z,99293.25
2022-08-17T06:13:43.847Z,99298.75
2022-08-17T06:18:56.185Z,99307.91
2022-08-17T06:24:07.248Z,99296.00
2022-08-17T06:29:27.232Z,99301.50
2022-08-17T06:34:29.980Z,99301.75
2022-08-17T06:39:43.941Z,99305.56
2022-08-17T06:44:51.181Z,99301.19
2022-08-17T06:50:17.760Z,99299.72
2022-08-17T06:55:46.453Z,99305.19
2022-08-17T07:00:54.108Z,99299.44
2022-08-17T07:06:06.447Z,99304.34
2022-08-17T07:11:13.105Z,99297.25
2022-08-17T07:16:23.815Z,99297.00
2022-08-17T07:21:43.597Z,99305.59
2022-08-17T07:26:49.702Z,99298.56
2022-08-17T07:31:55.434Z,99309.63
2022-08-17T07:37:05.338Z,99297.97
2022-08-17T07:42:06.909Z,99304.44
2022-08-17T07:47:35.131Z,99309.50
2022-08-17T07:52:51.345Z,99301.81
2022-08-17T07:57:58.595Z,99321.97
2022-08-17T08:03:14.901Z,99311.41
2022-08-17T08:08:27.203Z,99339.59
2022-08-17T08:13:30.268Z,99349.13
2022-08-17T08:18:54.883Z,99349.59
2022-08-17T08:24:24.169Z,99364.03
2022-08-17T08:29:54.475Z,99353.03
2022-08-17T08:35:26.715Z,99348.13
2022-08-17T08:40:46.486Z,99337.78
2022-08-17T08:45:57.957Z,99336.69
2022-08-17T08:51:22.332Z,99329.25
2022-08-17T08:57:23.912Z,99327.63
2022-08-17T09:03:03.892Z,99334.47
2022-08-17T09:08:11.644Z,99340.31
2022-08-17T09:13:28.531Z,99360.56
2022-08-17T09:19:02.629Z,99355.31
2022-08-17T09:24:02.434Z,99352.50
2022-08-17T09:29:09.994Z,99344.69
2022-08-17T09:34:16.712Z,99327.84
2022-08-17T09:39:33.241Z,99336.13
2022-08-17T09:44:52.005Z,99337.25
2022-08-17T09:50:01.710Z,99333.28
2022-08-17T09:55:05.690Z,99342.50
2022-08-17T10:00:10.082Z,99354.50
2022-08-17T10:05:21.989Z,99357.44
2022-08-17T10:11:00.077Z,99350.94
2022-08-17T10:16:16.563Z,99353.94
2022-08-17T10:21:39.391Z,99357.31
2022-08-17T10:26:56.730Z,99346.69
2022-08-17T10:32:07.136Z,99362.13
2022-08-17T10:37:41.271Z,99363.34
2022-08-17T10:43:00.276Z,99369.56
2022-08-17T10:48:24.487Z,99365.22
2022-08-17T10:53:50.420Z,99359.91
2022-08-17T10:58:57.922Z,99363.59
2022-08-17T11:04:21.443Z,99355.56
2022-08-17T11:09:48.146Z,99330.78
2022-08-17T11:15:22.246Z,99330.66
2022-08-17T11:20:38.135Z,99342.44
2022-08-17T11:25:45.145Z,99331.47
2022-08-17T11:30:54.605Z,99335.47
2022-08-17T11:36:34.594Z,99333.09
2022-08-17T11:42:17.992Z,99318.88
2022-08-17T11:47:57.015Z,99314.09
2022-08-17T11:53:06.538Z,99306.50
2022-08-17T11:58:29.811Z,99312.44
2022-08-17T12:03:31.989Z,99312.50
2022-08-17T12:08:41.799Z,99309.97
2022-08-17T12:13:56.131Z,99294.81
2022-08-17T12:19:02.868Z,99294.28
2022-08-17T12:24:10.266Z,99287.09
2022-08-17T12:29:18.363Z,99286.06
2022-08-17T12:34:43.071Z,99282.69
2022-08-17T12:39:52.790Z,99287.41
2022-08-17T12:44:54.586Z,99283.81
2022-08-17T12:50:08.240Z,99270.59
2022-08-17T12:55:37.061Z,99263.88
2022-08-17T13:00:47.401Z,99260.13
2022-08-17T13:05:52.478Z,99255.56
2022-08-17T13:11:05.048Z,99254.97
2022-08-17T13:16:16.872Z,99253.13
2022-08-17T13:21:27.692Z,99244.59
2022-08-17T13:26:37.147Z,99259.97
2022-08-17T13:31:52.889Z,99261.75
2022-08-17T13:37:36.737Z,99262.34
2022-08-17T13:42:55.572Z,99252.19
2022-08-17T13:48:13.706Z,99230.06
2022-08-17T13:53:20.304Z,99230.94
2022-08-17T13:58:52.310Z,99218.50
2022-08-17T14:03:54.009Z,99211.91
2022-08-17T14:08:56.215Z,99207.63
2022-08-17T14:13:58.828Z,99203.56
2022-08-17T14:19:00.519Z,99215.91
2022-08-17T14:24:02.257Z,99200.09
2022-08-17T14:29:04.032Z,99192.06
2022-08-17T14:34:17.180Z,99182.16
2022-08-17T14:39:20.947Z,99178.53
2022-08-17T14:44:22.648Z,99191.19
2022-08-17T14:49:26.019Z,99193.88
2022-08-17T14:54:34.019Z,99187.44
2022-08-17T14:59:36.181Z,99192.38
2022-08-17T15:04:41.999Z,99181.41
2022-08-17T15:09:46.854Z,99192.31
2022-08-17T15:14:49.358Z,99179.78
2022-08-17T15:19:51.106Z,99185.91
2022-08-17T15:24:53.585Z,99194.59
2022-08-17T15:29:56.161Z,99180.81
2022-08-17T15:35:00.419Z,99185.06
2022-08-17T15:40:02.293Z,99179.44
2022-08-17T15:45:07.766Z,99173.22
2022-08-17T15:50:10.137Z,99191.59
2022-08-17T15:55:14.813Z,99179.34
2022-08-17T16:00:17.471Z,99183.75
2022-08-17T16:05:24.052Z,99161.06
2022-08-17T16:10:35.495Z,99155.94
2022-08-17T16:15:38.232Z,99154.19
2022-08-17T16:20:40.018Z,99160.34
2022-08-17T16:25:53.876Z,99159.66
2022-08-17T16:30:56.011Z,99161.16
2022-08-17T16:35:57.737Z,99159.09
2022-08-17T16:40:59.860Z,99147.66
2022-08-17T16:46:02.799Z,99156.41
2022-08-17T16:51:04.733Z,99169.75
2022-08-17T16:56:07.304Z,99171.47
2022-08-17T17:01:09.019Z,99172.31
2022-08-17T17:06:32.768Z,99178.84
2022-08-17T17:11:46.840Z,99182.22
2022-08-17T17:17:37.356Z,99184.34
2022-08-17T17:22:57.358Z,99188.69
2022-08-17T17:28:07.865Z,99192.47
2022-08-17T17:33:14.762Z,99192.25
2022-08-17T17:38:29.399Z,99201.97
2022-08-17T17:43:40.122Z,99209.00
2022-08-17T17:48:42.548Z,99208.59
2022-08-17T17:54:22.224Z,99220.03
2022-08-17T17:59:44.405Z,99231.53
2022-08-17T18:05:01.084Z,99233.16
2022-08-17T18:10:30.497Z,99232.03
2022-08-17T18:15:51.449Z,99227.00
2022-08-17T18:21:05.182Z,99233.03
2022-08-17T18:26:07.008Z,99256.25
2022-08-17T18:31:17.654Z,99264.13
2022-08-17T18:36:29.487Z,99271.03
2022-08-17T18:41:41.247Z,99280.63
2022-08-17T18:46:42.960Z,99297.63
2022-08-17T18:51:45.899Z,99312.44
2022-08-17T18:56:59.150Z,99315.78
2022-08-17T19:02:27.212Z,99313.63
2022-08-17T19:07:45.348Z,99315.44
2022-08-17T19:12:47.171Z,99318.91
2022-08-17T19:17:59.485Z,99327.25
2022-08-17T19:23:18.076Z,99346.78
2022-08-17T19:28:27.017Z,99360.09
2022-08-17T19:33:29.711Z,99356.09
2022-08-17T19:38:51.599Z,99361.66
2022-08-17T19:44:12.835Z,99359.56
2022-08-17T19:49:33.225Z,99363.34
2022-08-17T19:55:07.293Z,99377.06
2022-08-17T20:00:13.172Z,99390.25
2022-08-17T20:05:24.096Z,99387.50
2022-08-17T20:10:55.329Z,99386.78
2022-08-17T20:15:57.837Z,99380.59
2022-08-17T20:21:24.039Z,99384.97
2022-08-17T20:26:36.929Z,99390.88
2022-08-17T20:31:51.902Z,99392.06
2022-08-17T20:37:01.813Z,99395.75
2022-08-17T20:42:28.055Z,99392.63
2022-08-17T20:47:55.155Z,99386.22
2022-08-17T20:53:06.053Z,99392.19
2022-08-17T20:58:23.372Z,99395.94
2022-08-17T21:03:26.673Z,99398.63
2022-08-17T21:08:45.268Z,99407.56
2022-08-17T21:14:09.234Z,99403.00
2022-08-17T21:19:44.388Z,99396.34
2022-08-17T21:25:26.953Z,99420.19
2022-08-17T21:30:28.566Z,99432.44
2022-08-17T21:35:50.683Z,99435.47
2022-08-17T21:40:53.541Z,99444.13
2022-08-17T21:46:00.761Z,99452.22
2022-08-17T21:51:23.913Z,99450.34
2022-08-17T21:56:34.604Z,99446.41
2022-08-17T22:01:40.725Z,99442.34
2022-08-17T22:06:52.491Z,99448.50
2022-08-17T22:12:05.079Z,99444.66
2022-08-17T22:17:16.848Z,99448.78
2022-08-17T22:22:26.427Z,99449.78
2022-08-17T22:27:56.769Z,99450.31
2022-08-17T22:32:59.832Z,99454.13
2022-08-17T22:38:19.934Z,99459.69
2022-08-17T22:43:26.293Z,99468.25
2022-08-17T22:48:30.461Z,99478.47
2022-08-17T22:53:50.640Z,99480.53
2022-08-17T22:59:16.309Z,99485.59
2022-08-17T23:04:36.684Z,99479.56
2022-08-17T23:09:38.972Z,99486.25
2022-08-17T23:14:46.105Z,99493.59
2022-08-17T23:19:47.815Z,99478.66
2022-08-17T23:24:50.644Z,99492.00
2022-08-17T23:29:52.433Z,99489.19
2022-08-17T23:34:54.149Z,99483.72
2022-08-17T23:39:55.954Z,99487.16
2022-08-17T23:44:57.754Z,99498.75
2022-08-17T23:49:59.491Z,99502.28
2022-08-17T23:55:05.755Z,99496.03
